Aérodrome :







RETROUVEZ-NOUS SUR...

 
LOGIN :

S'inscrire | Disclaimer

   EN    FR    IT 

 









Légende :    VFR   VFR Marginal   IFR   IFR Intensif   IFR Très Intensif
Visi : 
Plafond : 
>= 8 km
>= 3000ft
5 à 8 km
1000 à 3000 ft
1500m à 5 km
500 à 1000 ft
800 à 1500m
200 à 500 ft
< 800m
< 200 ft
Symboles :   Orages  Brouillard  Fortes neiges  Fortes précipitations  Vent > 20 kt






- Altitude de l'aérodrome : 461 ft
- Code IATA : YYT


CYYT - St John's Int

DERNIER METAR :
  • 101100Z 16012KT 15SM SCT025 OVC180 M02/M04 A2972 RMK SC3AC5 SLP074

METARs EXPIRÉS :
  • 101000Z 16003KT 15SM BKN190 M03/M07 A2974 RMK AC6 SLP080
  • 100900Z 23006KT 15SM FEW160 BKN220 M04/M10 A2976 RMK AC3CI3 SLP086

TAF TAF CYYT
Valide du 10 à 12h jusqu'au 11 à 12h UTC


101139Z 1012/1112 16012G22KT P6SM SCT020 OVC180
TEMPO 1013/1015 11/2SM -SHSN OVC020
BECMG 1013/1014 15025G35KT
FM101500 15025G40KT 11/2SM -SHSN BKN007 OVC012
TEMPO 1015/1017 4SM -RASN -PL BR SCT007 OVC012
PROB30 1015/1017 3SM -FZRA -PL BR BKN003 OVC010
FM101700 15030G45KT 2SM -RA BR OVC005
TEMPO 1017/1021 6SM -RA BR
FM102100 18020G35KT 3SM -RA BR OVC008
TEMPO 1021/1023 P6SM NSW SCT008 OVC015
FM102300 21012KT P6SM FEW010 SCT100
FM110400 23012KT 6SM -RA BR BKN007 BKN080
FM110600 19012KT 2SM -DZ BR BKN003 OVC008
FM111100 21010KT P6SM FEW008 BKN150 RMK NXT FCST BY 101800Z



MET'MAP, la Météo Aéronautique d'un coup d'oeil ! - Copyright ORBIFLY Décembre 2007 - Disclaimer

ORBIFLY MET'MAP TEAM :

Programmation & Développement : Alexandra Zaïnal
Sur une idée originale de : Baudouin d'Aumeries
Assistance à la programmation : Marc-Olivier Méhu
Soutien technique & logistique : Manuel Goepfert

Contact : metmap@orbifly.com




SOURCES & CREDITS :

   NOAA